Wytheville, Virginia
Current Conditions -  °F | °C
As of 1:35 AM on Tuesday 21 Oct 2014 (Local Time) from KMKJ Reporting Station
Scattered Clouds Scattered Clouds  
Wind Chill: 51°   Ceiling: Unl
Heat Index: 51°   Visibility: 10mi
Dew Point: 47°   Wind: 6mph
Humidity: 87%   Direction: 250°WSW
Pressure: 30.01"   Gusts: NA
Location:  36.95°N, 81.08°W
Report Text: KMKJ 210535Z AUTO 25005KT 10SM SCT041 SCT047 SCT060 11/09 A3001 RMK AO2 T01050085
Loading
Personal Weather Stations






























Interactive Weather Map
Tropical Storm Tracking
New forecast layout! Learn more

10-Day Weather Forecast

Advertisements
Track Severe Weather on mobile